Time;durP1;ratioP1;P1;durP2;ratioP2;P2;SDS_P1;SDS_P2;PMS_P1;PMS_P2;Temp;Humidity;BMP_temperature;BMP_pressure;BME280_temperature;BME280_humidity;BME280_pressure;Samples;Min_cycle;Max_cycle;Signal;HPM_P1;HPM_P2
2021/03/25 00:01:45;;;;;;;;;;;;;;;;;;5090057;28;827;-70
2021/03/25 00:04:12;;;;;;;;;;;;;;;;;;5090026;28;1113;-71
2021/03/25 00:06:39;;;;;;;;;;;;;;;;;;5093046;28;851;-70
2021/03/25 00:09:07;;;;;;;;;;;;;;;;;;5089614;28;858;-71
2021/03/25 00:11:33;;;;;;;;;;;;;;;;;;5087896;28;1921;-71
2021/03/25 00:13:58;;;;;;;;;;;;;;;;;;5088216;28;803;-70
2021/03/25 00:16:23;;;;;;;;;;;;;;;;;;5088004;28;1301;-70
2021/03/25 00:18:49;;;;;;;;;;;;;;;;;;5089326;28;803;-71
2021/03/25 00:21:14;;;;;;;;;;;;;;;;;;5087793;28;1177;-71
2021/03/25 00:23:39;;;;;;;;;;;;;;;;;;5088061;28;1174;-70
2021/03/25 00:26:05;;;;;;;;;;;;;;;;;;5085856;28;1074;-71
2021/03/25 00:28:30;;;;;;;;;;;;;;;;;;5089026;28;874;-72
2021/03/25 00:30:56;;;;;;;;;;;;;;;;;;5088749;28;1885;-71
2021/03/25 00:33:22;;;;;;;;;;;;;;;;;;5089502;28;881;-71
2021/03/25 00:35:48;;;;;;;;;;;;;;;;;;5089161;28;980;-72
2021/03/25 00:38:14;;;;;;;;;;;;;;;;;;5088164;28;910;-71
2021/03/25 00:40:39;;;;;;;;;;;;;;;;;;5089022;28;878;-72
2021/03/25 00:43:06;;;;;;;;;;;;;;;;;;5055571;28;1949;-72
2021/03/25 00:45:36;;;;;;;;;;;;;;;;;;5068294;28;851;-72
2021/03/25 00:48:01;;;;;;;;;;;;;;;;;;5066980;28;1183;-72
2021/03/25 00:50:27;;;;;;;;;;;;;;;;;;5068222;28;855;-70
2021/03/25 00:52:53;;;;;;;;;;;;;;;;;;5069717;28;1893;-71
2021/03/25 00:55:18;;;;;;;;;;;;;;;;;;5088114;28;842;-72
2021/03/25 00:57:44;;;;;;;;;;;;;;;;;;5080374;28;1664;-72
2021/03/25 01:00:11;;;;;;;;;;;;;;;;;;5058616;28;950;-73
2021/03/25 01:02:36;;;;;;;;;;;;;;;;;;5066843;28;863;-70
2021/03/25 01:05:01;;;;;;;;;;;;;;;;;;5067995;28;835;-70
2021/03/25 01:07:28;;;;;;;;;;;;;;;;;;5071242;28;909;-70
2021/03/25 01:09:54;;;;;;;;;;;;;;;;;;5067647;28;1070;-70
2021/03/25 01:12:19;;;;;;;;;;;;;;;;;;5067688;28;1902;-71
2021/03/25 01:14:45;;;;;;;;;;;;;;;;;;5066815;28;1375;-70
2021/03/25 01:17:10;;;;;;;;;;;;;;;;;;5066923;28;1333;-70
2021/03/25 01:19:35;;;;;;;;;;;;;;;;;;5066386;28;1245;-70
2021/03/25 01:22:01;;;;;;;;;;;;;;;;;;5066545;28;1199;-70
2021/03/25 01:24:26;;;;;;;;;;;;;;;;;;5066301;28;901;-70
2021/03/25 01:26:52;;;;;;;;;;;;;;;;;;5067422;28;858;-71
2021/03/25 01:29:18;;;;;;;;;;;;;;;;;;5067729;28;831;-70
2021/03/25 01:31:44;;;;;;;;;;;;;;;;;;5066232;28;1972;-71
2021/03/25 01:34:12;;;;;;;;;;;;;;;;;;5068295;28;807;-70
2021/03/25 01:36:37;;;;;;;;;;;;;;;;;;5100442;28;898;-70
2021/03/25 01:39:03;;;;;;;;;;;;;;;;;;5066582;28;839;-70
2021/03/25 01:41:29;;;;;;;;;;;;;;;;;;5065850;28;1179;-70
2021/03/25 01:43:55;;;;;;;;;;;;;;;;;;5066970;28;824;-69
2021/03/25 01:46:31;;;;;;;;;;;;;;;;;;5066891;28;1780;-70
2021/03/25 01:49:01;;;;;;;;;;;;;;;;;;5067499;28;808;-70
2021/03/25 01:51:33;;;;;;;;;;;;;;;;;;5065991;28;1989;-69
2021/03/25 01:54:08;;;;;;;;;;;;;;;;;;5077470;28;1277;-70
2021/03/25 01:56:36;;;;;;;;;;;;;;;;;;5088172;28;869;-71
2021/03/25 01:59:20;;;;;;;;;;;;;;;;;;5087200;28;930;-70
2021/03/25 02:01:50;;;;;;;;;;;;;;;;;;5087090;28;882;-70
2021/03/25 02:04:16;;;;;;;;;;;;;;;;;;5087765;28;874;-70
2021/03/25 02:06:45;;;;;;;;;;;;;;;;;;5088243;28;874;-70
2021/03/25 02:09:17;;;;;;;;;;;;;;;;;;5091107;28;881;-70
2021/03/25 02:12:01;;;;;;;;;;;;;;;;;;5087534;28;1925;-70
2021/03/25 02:14:33;;;;;;;;;;;;;;;;;;5087274;28;862;-71
2021/03/25 02:16:59;;;;;;;;;;;;;;;;;;5087230;28;831;-70
2021/03/25 02:19:39;;;;;;;;;;;;;;;;;;5087300;28;889;-71
2021/03/25 02:22:31;;;;;;;;;;;;;;;;;;5087053;28;937;-70
2021/03/25 02:25:10;;;;;;;;;;;;;;;;;;5070740;28;1232;-71
2021/03/25 02:27:35;;;;;;;;;;;;;;;;;;5082914;28;1606;-71
2021/03/25 02:30:01;;;;;;;;;;;;;;;;;;5087939;28;842;-70
2021/03/25 02:32:35;;;;;;;;;;;;;;;;;;5087233;28;1886;-70
2021/03/25 02:35:05;;;;;;;;;;;;;;;;;;5086709;28;830;-70
2021/03/25 02:37:32;;;;;;;;;;;;;;;;;;5090798;28;838;-72
2021/03/25 02:40:16;;;;;;;;;;;;;;;;;;5091230;28;964;-71
2021/03/25 02:42:44;;;;;;;;;;;;;;;;;;5090590;28;1547;-72
2021/03/25 02:45:15;;;;;;;;;;;;;;;;;;5091183;28;1376;-70
2021/03/25 02:47:43;;;;;;;;;;;;;;;;;;5091788;28;1421;-71
2021/03/25 02:50:15;;;;;;;;;;;;;;;;;;5091795;28;859;-70
2021/03/25 02:52:43;;;;;;;;;;;;;;;;;;5091136;28;1969;-70
2021/03/25 02:55:10;;;;;;;;;;;;;;;;;;5071196;28;851;-71
2021/03/25 02:57:47;;;;;;;;;;;;;;;;;;5070185;28;1026;-71
2021/03/25 03:00:14;;;;;;;;;;;;;;;;;;5069696;28;894;-72
2021/03/25 03:02:51;;;;;;;;;;;;;;;;;;5071134;28;938;-71
2021/03/25 03:05:19;;;;;;;;;;;;;;;;;;5069879;28;862;-71
2021/03/25 03:07:47;;;;;;;;;;;;;;;;;;5070067;28;843;-71
2021/03/25 03:10:16;;;;;;;;;;;;;;;;;;5073601;28;858;-71
2021/03/25 03:12:45;;;;;;;;;;;;;;;;;;5070845;28;1905;-71
2021/03/25 03:15:25;;;;;;;;;;;;;;;;;;5052963;28;1172;-71
2021/03/25 03:17:55;;;;;;;;;;;;;;;;;;5070208;28;846;-70
2021/03/25 03:20:23;;;;;;;;;;;;;;;;;;5069690;28;815;-70
2021/03/25 03:22:49;;;;;;;;;;;;;;;;;;5051459;28;1301;-71
2021/03/25 03:25:17;;;;;;;;;;;;;;;;;;5069459;28;937;-71
2021/03/25 03:27:46;;;;;;;;;;;;;;;;;;5069979;28;820;-72
2021/03/25 03:30:27;;;;;;;;;;;;;;;;;;5069779;28;985;-71
2021/03/25 03:32:56;;;;;;;;;;;;;;;;;;5051431;28;1898;-71
2021/03/25 03:35:31;;;;;;;;;;;;;;;;;;5052163;28;1265;-71
2021/03/25 03:38:00;;;;;;;;;;;;;;;;;;5085159;28;934;-71
2021/03/25 03:40:27;;;;;;;;;;;;;;;;;;5069037;28;855;-71
2021/03/25 03:42:56;;;;;;;;;;;;;;;;;;5069919;28;835;-71
2021/03/25 03:45:23;;;;;;;;;;;;;;;;;;5069791;28;811;-72
2021/03/25 03:47:49;;;;;;;;;;;;;;;;;;5069005;28;862;-71
2021/03/25 03:50:20;;;;;;;;;;;;;;;;;;5069737;28;894;-71
2021/03/25 03:52:48;;;;;;;;;;;;;;;;;;5069706;28;1978;-72
2021/03/25 03:55:14;;;;;;;;;;;;;;;;;;5069417;28;898;-71
2021/03/25 03:58:00;;;;;;;;;;;;;;;;;;5069980;28;854;-72
2021/03/25 04:00:55;;;;;;;;;;;;;;;;;;5072562;28;1186;-72
2021/03/25 04:03:23;;;;;;;;;;;;;;;;;;5079966;28;1562;-73
2021/03/25 04:05:56;;;;;;;;;;;;;;;;;;5088885;28;1014;-73
2021/03/25 04:08:21;;;;;;;;;;;;;;;;;;5089939;28;890;-73
2021/03/25 04:10:52;;;;;;;;;;;;;;;;;;5092639;28;874;-73
2021/03/25 04:13:28;;;;;;;;;;;;;;;;;;5087843;28;1166;-71
2021/03/25 04:15:54;;;;;;;;;;;;;;;;;;5087868;28;941;-70
2021/03/25 04:18:24;;;;;;;;;;;;;;;;;;5084515;28;1170;-70
2021/03/25 04:20:52;;;;;;;;;;;;;;;;;;5089325;28;850;-70
2021/03/25 04:23:19;;;;;;;;;;;;;;;;;;5087291;28;898;-71
2021/03/25 04:26:05;;;;;;;;;;;;;;;;;;5089148;28;908;-70
2021/03/25 04:28:34;;;;;;;;;;;;;;;;;;5088186;28;1220;-71
2021/03/25 04:30:59;;;;;;;;;;;;;;;;;;5088767;28;2005;-71
2021/03/25 04:33:27;;;;;;;;;;;;;;;;;;5088992;28;878;-71
2021/03/25 04:35:53;;;;;;;;;;;;;;;;;;5087229;28;839;-71
2021/03/25 04:38:24;;;;;;;;;;;;;;;;;;5088223;28;905;-70
2021/03/25 04:40:54;;;;;;;;;;;;;;;;;;5078066;28;1244;-70
2021/03/25 04:43:20;;;;;;;;;;;;;;;;;;5067682;28;870;-70
2021/03/25 04:45:49;;;;;;;;;;;;;;;;;;5068466;28;733;-71
2021/03/25 04:48:17;;;;;;;;;;;;;;;;;;5066335;28;1348;-70
2021/03/25 04:50:48;;;;;;;;;;;;;;;;;;5068356;28;882;-70
2021/03/25 04:53:22;;;;;;;;;;;;;;;;;;5072975;28;1898;-71
2021/03/25 04:55:48;;;;;;;;;;;;;;;;;;5088010;28;897;-71
2021/03/25 04:58:19;;;;;;;;;;;;;;;;;;5088727;28;929;-71
2021/03/25 05:00:45;;;;;;;;;;;;;;;;;;5088466;28;1026;-70
2021/03/25 05:03:20;;;;;;;;;;;;;;;;;;5089139;28;787;-70
2021/03/25 05:05:45;;;;;;;;;;;;;;;;;;5088498;28;871;-70
2021/03/25 05:08:18;;;;;;;;;;;;;;;;;;5088918;28;810;-70
2021/03/25 05:10:46;;;;;;;;;;;;;;;;;;5091271;28;838;-71
2021/03/25 05:13:22;;;;;;;;;;;;;;;;;;5087252;28;1967;-70
2021/03/25 05:15:48;;;;;;;;;;;;;;;;;;5088159;28;823;-73
2021/03/25 05:18:32;;;;;;;;;;;;;;;;;;5088078;28;798;-71
2021/03/25 05:21:10;;;;;;;;;;;;;;;;;;5088049;28;886;-70
2021/03/25 05:23:39;;;;;;;;;;;;;;;;;;5088640;28;822;-70
2021/03/25 05:26:08;;;;;;;;;;;;;;;;;;5087525;28;885;-70
2021/03/25 05:28:50;;;;;;;;;;;;;;;;;;5088116;28;902;-70
2021/03/25 05:31:16;;;;;;;;;;;;;;;;;;5088455;28;1894;-70
2021/03/25 05:33:45;;;;;;;;;;;;;;;;;;5088628;28;870;-70
2021/03/25 05:36:13;;;;;;;;;;;;;;;;;;5088374;28;897;-71
2021/03/25 05:38:39;;;;;;;;;;;;;;;;;;5087830;28;858;-71
2021/03/25 05:41:22;;;;;;;;;;;;;;;;;;5086975;28;815;-72
2021/03/25 05:43:56;;;;;;;;;;;;;;;;;;5087559;28;889;-70
2021/03/25 05:46:24;;;;;;;;;;;;;;;;;;5087408;28;953;-71
2021/03/25 05:49:08;;;;;;;;;;;;;;;;;;5087593;28;897;-70
2021/03/25 05:51:52;;;;;;;;;;;;;;;;;;5087245;28;1898;-70
2021/03/25 05:54:36;;;;;;;;;;;;;;;;;;5072688;28;1169;-71
2021/03/25 05:57:17;;;;;;;;;;;;;;;;;;5067471;28;831;-70
2021/03/25 05:59:56;;;;;;;;;;;;;;;;;;5066889;28;855;-72
2021/03/25 06:02:26;;;;;;;;;;;;;;;;;;5066846;28;823;-70
2021/03/25 06:04:52;;;;;;;;;;;;;;;;;;5067437;28;878;-69
2021/03/25 06:07:17;;;;;;;;;;;;;;;;;;5066487;28;1263;-70
2021/03/25 06:09:45;;;;;;;;;;;;;;;;;;5065847;28;1169;-71
2021/03/25 06:12:26;;;;;;;;;;;;;;;;;;5067129;28;1902;-70
2021/03/25 06:15:12;;;;;;;;;;;;;;;;;;5067080;28;855;-70
2021/03/25 06:17:48;;;;;;;;;;;;;;;;;;5028706;28;1135;-69
2021/03/25 06:20:32;;;;;;;;;;;;;;;;;;5067301;28;938;-70
2021/03/25 06:23:00;;;;;;;;;;;;;;;;;;5066878;28;922;-69
2021/03/25 06:25:29;;;;;;;;;;;;;;;;;;5066647;28;591;-69
2021/03/25 06:28:12;;;;;;;;;;;;;;;;;;5066600;28;846;-70
2021/03/25 06:30:40;;;;;;;;;;;;;;;;;;5049305;28;895;-69
2021/03/25 06:33:13;;;;;;;;;;;;;;;;;;5048291;28;1901;-69
2021/03/25 06:35:47;;;;;;;;;;;;;;;;;;5056524;28;1260;-68
2021/03/25 06:38:19;;;;;;;;;;;;;;;;;;5029240;28;1179;-70
2021/03/25 06:40:58;;;;;;;;;;;;;;;;;;5046523;28;1174;-71
2021/03/25 06:43:23;;;;;;;;;;;;;;;;;;5027159;28;1956;-73
2021/03/25 06:45:59;;;;;;;;;;;;;;;;;;5053595;28;1509;-71
2021/03/25 06:48:35;;;;;;;;;;;;;;;;;;5047568;28;1248;-69
2021/03/25 06:51:05;;;;;;;;;;;;;;;;;;5046547;28;1970;-71
2021/03/25 06:53:32;;;;;;;;;;;;;;;;;;5035015;28;1519;-71
2021/03/25 06:56:04;;;;;;;;;;;;;;;;;;5066668;28;906;-71
2021/03/25 06:58:42;;;;;;;;;;;;;;;;;;5045257;28;1545;-71
2021/03/25 07:01:19;;;;;;;;;;;;;;;;;;5066968;28;859;-73
2021/03/25 07:03:44;;;;;;;;;;;;;;;;;;5066868;28;870;-71
2021/03/25 07:06:10;;;;;;;;;;;;;;;;;;5066987;28;867;-72
2021/03/25 07:08:36;;;;;;;;;;;;;;;;;;5071575;28;1055;-71
2021/03/25 07:11:04;;;;;;;;;;;;;;;;;;5065490;28;1898;-68
2021/03/25 07:13:33;;;;;;;;;;;;;;;;;;5079276;28;1240;-70
2021/03/25 07:15:59;;;;;;;;;;;;;;;;;;5066699;28;1464;-71
2021/03/25 07:18:31;;;;;;;;;;;;;;;;;;5067352;28;1185;-71
2021/03/25 07:21:15;;;;;;;;;;;;;;;;;;5067448;28;1047;-71
2021/03/25 07:23:44;;;;;;;;;;;;;;;;;;5067629;28;926;-72
2021/03/25 07:26:18;;;;;;;;;;;;;;;;;;5081285;28;1086;-70
2021/03/25 07:28:56;;;;;;;;;;;;;;;;;;5067810;28;1150;-70
2021/03/25 07:31:27;;;;;;;;;;;;;;;;;;5089844;28;2223;-71
2021/03/25 07:33:52;;;;;;;;;;;;;;;;;;5074853;28;1463;-70
2021/03/25 07:36:18;;;;;;;;;;;;;;;;;;5068330;28;879;-70
2021/03/25 07:38:44;;;;;;;;;;;;;;;;;;5070241;28;811;-69
2021/03/25 07:41:18;;;;;;;;;;;;;;;;;;5070676;28;890;-70
2021/03/25 07:43:49;;;;;;;;;;;;;;;;;;5068439;28;1369;-69
2021/03/25 07:46:33;;;;;;;;;;;;;;;;;;5069544;28;839;-71
2021/03/25 07:49:05;;;;;;;;;;;;;;;;;;5067302;28;1607;-70
2021/03/25 07:51:46;;;;;;;;;;;;;;;;;;5061851;28;2131;-71
2021/03/25 07:54:13;;;;;;;;;;;;;;;;;;5068418;28;1377;-70
2021/03/25 07:57:03;;;;;;;;;;;;;;;;;;5066761;28;1696;-67
2021/03/25 07:59:30;;;;;;;;;;;;;;;;;;5066627;28;1723;-70
2021/03/25 08:01:55;;;;;;;;;;;;;;;;;;5052115;28;1157;-72
2021/03/25 08:04:25;;;;;;;;;;;;;;;;;;5053708;28;1235;-71
2021/03/25 08:06:57;;;;;;;;;;;;;;;;;;5063339;28;1221;-67
2021/03/25 08:09:23;;;;;;;;;;;;;;;;;;5038005;28;1550;-66
2021/03/25 08:11:56;;;;;;;;;;;;;;;;;;5028868;28;1902;-67
2021/03/25 08:14:26;;;;;;;;;;;;;;;;;;5010824;28;849;-66
2021/03/25 08:16:57;;;;;;;;;;;;;;;;;;5011032;28;977;-68
2021/03/25 08:19:39;;;;;;;;;;;;;;;;;;5031470;28;1381;-66
2021/03/25 08:22:19;;;;;;;;;;;;;;;;;;5068145;28;1051;-67
2021/03/25 08:25:03;;;;;;;;;;;;;;;;;;5050222;28;1262;-67
2021/03/25 08:27:37;;;;;;;;;;;;;;;;;;5069011;28;1147;-67
2021/03/25 08:30:22;;;;;;;;;;;;;;;;;;5068645;28;842;-69
2021/03/25 08:32:53;;;;;;;;;;;;;;;;;;5056644;28;1957;-67
2021/03/25 08:35:26;;;;;;;;;;;;;;;;;;5031092;28;859;-68
2021/03/25 08:37:51;;;;;;;;;;;;;;;;;;5048324;28;1285;-71
2021/03/25 08:40:40;;;;;;;;;;;;;;;;;;5047015;28;827;-72
2021/03/25 08:43:06;;;;;;;;;;;;;;;;;;5045074;28;1163;-70
2021/03/25 08:45:39;;;;;;;;;;;;;;;;;;5048008;28;878;-71
2021/03/25 08:48:14;;;;;;;;;;;;;;;;;;5048215;28;924;-66
2021/03/25 08:50:58;;;;;;;;;;;;;;;;;;5049386;28;803;-67
2021/03/25 08:53:26;;;;;;;;;;;;;;;;;;5049241;28;1757;-71
2021/03/25 08:55:53;;;;;;;;;;;;;;;;;;5047729;28;1586;-72
2021/03/25 08:58:20;;;;;;;;;;;;;;;;;;5048665;28;1061;-70
2021/03/25 09:00:48;;;;;;;;;;;;;;;;;;5061236;28;1540;-69
2021/03/25 09:03:24;;;;;;;;;;;;;;;;;;5066354;28;827;-70
2021/03/25 09:06:01;;;;;;;;;;;;;;;;;;5074502;28;1213;-69
2021/03/25 09:08:28;;;;;;;;;;;;;;;;;;5084376;28;1391;-70
2021/03/25 09:10:55;;;;;;;;;;;;;;;;;;5087798;28;902;-69
2021/03/25 09:13:25;;;;;;;;;;;;;;;;;;5087431;28;1961;-69
2021/03/25 09:15:52;;;;;;;;;;;;;;;;;;5086326;28;969;-69
2021/03/25 09:18:19;;;;;;;;;;;;;;;;;;5086792;28;824;-69
2021/03/25 09:20:46;;;;;;;;;;;;;;;;;;5087968;28;898;-68
2021/03/25 09:23:33;;;;;;;;;;;;;;;;;;5088194;28;974;-68
2021/03/25 09:26:21;;;;;;;;;;;;;;;;;;5086621;28;839;-66
2021/03/25 09:28:53;;;;;;;;;;;;;;;;;;5046679;28;1208;-65
2021/03/25 09:31:19;;;;;;;;;;;;;;;;;;5045688;28;1969;-66
2021/03/25 09:33:49;;;;;;;;;;;;;;;;;;5046092;28;824;-66
2021/03/25 09:36:18;;;;;;;;;;;;;;;;;;5052566;28;1403;-64
2021/03/25 09:38:58;;;;;;;;;;;;;;;;;;5073552;28;1059;-64
2021/03/25 09:41:30;;;;;;;;;;;;;;;;;;5064630;28;831;-64
2021/03/25 09:44:05;;;;;;;;;;;;;;;;;;5066447;28;858;-64
2021/03/25 09:46:40;;;;;;;;;;;;;;;;;;5064059;28;1408;-68
2021/03/25 09:49:27;;;;;;;;;;;;;;;;;;5111481;27;1163;-67
2021/03/25 09:52:17;;;;;;;;;;;;;;;;;;5082381;28;1886;-68
2021/03/25 09:54:57;;;;;;;;;;;;;;;;;;5074470;28;1083;-68
2021/03/25 09:57:29;;;;;;;;;;;;;;;;;;5075687;28;1226;-65
2021/03/25 10:00:00;;;;;;;;;;;;;;;;;;5076188;28;1477;-64
2021/03/25 10:02:37;;;;;;;;;;;;;;;;;;5074213;28;1512;-64
2021/03/25 10:05:34;;;;;;;;;;;;;;;;;;5073753;28;1067;-63
2021/03/25 10:08:01;;;;;;;;;;;;;;;;;;5080856;28;1014;-64
2021/03/25 10:10:34;;;;;;;;;;;;;;;;;;5075039;28;1071;-64
2021/03/25 10:13:06;;;;;;;;;;;;;;;;;;5078281;28;1898;-67
2021/03/25 10:15:40;;;;;;;;;;;;;;;;;;5065195;28;1033;-70
2021/03/25 10:18:15;;;;;;;;;;;;;;;;;;5065009;28;887;-70
2021/03/25 10:20:46;;;;;;;;;;;;;;;;;;5067186;28;922;-69
2021/03/25 10:23:24;;;;;;;;;;;;;;;;;;5067252;28;835;-67
2021/03/25 10:25:51;;;;;;;;;;;;;;;;;;5066163;28;1257;-68
2021/03/25 10:28:19;;;;;;;;;;;;;;;;;;5046670;28;918;-72
2021/03/25 10:30:44;;;;;;;;;;;;;;;;;;5047045;28;890;-71
2021/03/25 10:33:12;;;;;;;;;;;;;;;;;;5047817;28;1959;-71
2021/03/25 10:35:51;;;;;;;;;;;;;;;;;;5046121;28;870;-71
2021/03/25 10:38:20;;;;;;;;;;;;;;;;;;5046858;28;867;-65
2021/03/25 10:40:47;;;;;;;;;;;;;;;;;;5046821;28;1247;-65
2021/03/25 10:43:16;;;;;;;;;;;;;;;;;;5046520;28;867;-68
2021/03/25 10:45:50;;;;;;;;;;;;;;;;;;5046025;28;883;-65
2021/03/25 10:48:22;;;;;;;;;;;;;;;;;;5047168;28;878;-65
2021/03/25 10:50:58;;;;;;;;;;;;;;;;;;5046740;28;831;-65
2021/03/25 10:53:28;;;;;;;;;;;;;;;;;;5059075;28;1972;-64
2021/03/25 10:56:01;;;;;;;;;;;;;;;;;;5083876;28;1422;-65
2021/03/25 10:58:29;;;;;;;;;;;;;;;;;;5068146;28;1400;-63
2021/03/25 11:01:15;;;;;;;;;;;;;;;;;;5052721;28;1628;-71
2021/03/25 11:03:41;;;;;;;;;;;;;;;;;;5051543;28;890;-66
2021/03/25 11:06:07;;;;;;;;;;;;;;;;;;5051395;28;819;-67
2021/03/25 11:08:40;;;;;;;;;;;;;;;;;;5050717;28;843;-71
2021/03/25 11:11:09;;;;;;;;;;;;;;;;;;5053440;28;1894;-70
2021/03/25 11:13:35;;;;;;;;;;;;;;;;;;5069393;28;1536;-67
2021/03/25 11:16:03;;;;;;;;;;;;;;;;;;5070272;28;984;-70
2021/03/25 11:18:39;;;;;;;;;;;;;;;;;;5070221;28;831;-69
2021/03/25 11:21:06;;;;;;;;;;;;;;;;;;5069927;28;1099;-69
2021/03/25 11:23:32;;;;;;;;;;;;;;;;;;5070377;28;835;-72
2021/03/25 11:26:03;;;;;;;;;;;;;;;;;;5069861;28;1348;-71
2021/03/25 11:28:30;;;;;;;;;;;;;;;;;;5069794;28;1099;-67
2021/03/25 11:31:16;;;;;;;;;;;;;;;;;;5069558;28;1344;-70
2021/03/25 11:33:41;;;;;;;;;;;;;;;;;;5069670;28;1213;-68
2021/03/25 11:36:07;;;;;;;;;;;;;;;;;;5069922;28;1191;-71
2021/03/25 11:38:32;;;;;;;;;;;;;;;;;;5069965;28;881;-70
2021/03/25 11:40:59;;;;;;;;;;;;;;;;;;5069763;28;886;-69
2021/03/25 11:43:37;;;;;;;;;;;;;;;;;;5069859;28;854;-69
2021/03/25 11:46:02;;;;;;;;;;;;;;;;;;5076245;28;1212;-70
2021/03/25 11:48:32;;;;;;;;;;;;;;;;;;5071573;28;1218;-71
2021/03/25 11:51:18;;;;;;;;;;;;;;;;;;5059406;28;1839;-71
2021/03/25 11:53:50;;;;;;;;;;;;;;;;;;5081199;28;1191;-71
2021/03/25 11:56:21;;;;;;;;;;;;;;;;;;5078943;28;1220;-67
2021/03/25 11:58:51;;;;;;;;;;;;;;;;;;5069384;28;1230;-70
2021/03/25 12:01:23;;;;;;;;;;;;;;;;;;5088834;28;858;-69
2021/03/25 12:04:00;;;;;;;;;;;;;;;;;;5088211;28;1084;-70
2021/03/25 12:06:25;;;;;;;;;;;;;;;;;;5061896;28;1609;-70
2021/03/25 12:09:07;;;;;;;;;;;;;;;;;;5047520;28;1636;-72
2021/03/25 12:11:34;;;;;;;;;;;;;;;;;;5064329;28;1909;-73
2021/03/25 12:13:59;;;;;;;;;;;;;;;;;;5057256;28;1649;-68
2021/03/25 12:16:24;;;;;;;;;;;;;;;;;;5068974;28;839;-71
2021/03/25 12:18:50;;;;;;;;;;;;;;;;;;5069030;28;992;-66
2021/03/25 12:21:15;;;;;;;;;;;;;;;;;;5051530;28;842;-64
2021/03/25 12:23:43;;;;;;;;;;;;;;;;;;5067381;28;1629;-71
2021/03/25 12:26:12;;;;;;;;;;;;;;;;;;5079715;28;1355;-68
2021/03/25 12:28:37;;;;;;;;;;;;;;;;;;5085543;28;1732;-71
2021/03/25 12:31:03;;;;;;;;;;;;;;;;;;5058264;28;886;-66
2021/03/25 12:33:30;;;;;;;;;;;;;;;;;;5067907;28;1886;-64
2021/03/25 12:35:57;;;;;;;;;;;;;;;;;;5067557;28;776;-69
2021/03/25 12:38:22;;;;;;;;;;;;;;;;;;5068518;28;842;-67
2021/03/25 12:40:48;;;;;;;;;;;;;;;;;;5049506;28;1611;-68
2021/03/25 12:43:14;;;;;;;;;;;;;;;;;;5063681;28;1533;-65
2021/03/25 12:45:41;;;;;;;;;;;;;;;;;;5031982;28;832;-64
2021/03/25 12:48:07;;;;;;;;;;;;;;;;;;5048189;28;886;-66
2021/03/25 12:50:34;;;;;;;;;;;;;;;;;;5048022;28;819;-64
2021/03/25 12:52:59;;;;;;;;;;;;;;;;;;5054442;28;1898;-63
2021/03/25 12:55:25;;;;;;;;;;;;;;;;;;5082669;28;1342;-64
2021/03/25 12:57:52;;;;;;;;;;;;;;;;;;5068069;28;811;-65
2021/03/25 13:00:26;;;;;;;;;;;;;;;;;;5067941;28;929;-64
2021/03/25 13:02:52;;;;;;;;;;;;;;;;;;5066567;28;804;-63
2021/03/25 13:05:18;;;;;;;;;;;;;;;;;;5067937;28;870;-64
2021/03/25 13:07:43;;;;;;;;;;;;;;;;;;5067878;28;803;-64
2021/03/25 13:10:10;;;;;;;;;;;;;;;;;;5069078;28;728;-63
2021/03/25 13:12:35;;;;;;;;;;;;;;;;;;5067604;28;1956;-64
2021/03/25 13:15:00;;;;;;;;;;;;;;;;;;5067606;28;1792;-67
2021/03/25 13:17:27;;;;;;;;;;;;;;;;;;5066435;28;850;-66
2021/03/25 13:19:52;;;;;;;;;;;;;;;;;;5067668;28;860;-64
2021/03/25 13:22:17;;;;;;;;;;;;;;;;;;5067335;28;835;-66
2021/03/25 13:24:43;;;;;;;;;;;;;;;;;;5067899;28;1356;-68
2021/03/25 13:27:08;;;;;;;;;;;;;;;;;;5069030;28;878;-69
2021/03/25 13:29:33;;;;;;;;;;;;;;;;;;5067670;28;914;-69
2021/03/25 13:31:59;;;;;;;;;;;;;;;;;;5067485;28;1991;-68
2021/03/25 13:34:24;;;;;;;;;;;;;;;;;;5067326;28;814;-69
2021/03/25 13:36:50;;;;;;;;;;;;;;;;;;5067148;28;835;-68
2021/03/25 13:39:15;;;;;;;;;;;;;;;;;;5065770;28;890;-69
2021/03/25 13:41:40;;;;;;;;;;;;;;;;;;5066462;28;839;-69
2021/03/25 13:44:06;;;;;;;;;;;;;;;;;;5067842;28;1048;-65
2021/03/25 13:46:31;;;;;;;;;;;;;;;;;;5067209;28;827;-66
2021/03/25 13:48:57;;;;;;;;;;;;;;;;;;5067152;28;815;-64
2021/03/25 13:51:22;;;;;;;;;;;;;;;;;;5067287;28;1960;-65
2021/03/25 13:53:48;;;;;;;;;;;;;;;;;;5077160;28;1019;-65
2021/03/25 13:56:13;;;;;;;;;;;;;;;;;;5072625;28;1398;-64
2021/03/25 13:58:39;;;;;;;;;;;;;;;;;;5068204;28;897;-64
2021/03/25 14:01:04;;;;;;;;;;;;;;;;;;5067686;28;857;-64
2021/03/25 14:03:29;;;;;;;;;;;;;;;;;;5041656;28;1380;-66
2021/03/25 14:05:55;;;;;;;;;;;;;;;;;;5040930;28;1152;-63
2021/03/25 14:08:20;;;;;;;;;;;;;;;;;;5047655;28;1052;-64
2021/03/25 14:10:46;;;;;;;;;;;;;;;;;;5046945;28;893;-63
2021/03/25 14:13:12;;;;;;;;;;;;;;;;;;5047768;28;1985;-65
2021/03/25 14:15:43;;;;;;;;;;;;;;;;;;5029849;28;1140;-63
2021/03/25 14:18:13;;;;;;;;;;;;;;;;;;5029373;28;875;-64
2021/03/25 14:20:39;;;;;;;;;;;;;;;;;;5048129;28;836;-64
2021/03/25 14:23:05;;;;;;;;;;;;;;;;;;5045202;28;823;-64
2021/03/25 14:25:34;;;;;;;;;;;;;;;;;;5040436;28;1203;-65
2021/03/25 14:28:00;;;;;;;;;;;;;;;;;;5046975;28;800;-64
2021/03/25 14:30:26;;;;;;;;;;;;;;;;;;5046882;28;883;-62
2021/03/25 14:32:52;;;;;;;;;;;;;;;;;;5052204;28;1955;-64
2021/03/25 14:35:19;;;;;;;;;;;;;;;;;;5067998;28;1155;-65
2021/03/25 14:37:44;;;;;;;;;;;;;;;;;;5070965;28;850;-65
2021/03/25 14:40:10;;;;;;;;;;;;;;;;;;5071567;28;823;-65
2021/03/25 14:42:35;;;;;;;;;;;;;;;;;;5070945;28;1140;-64
2021/03/25 14:45:02;;;;;;;;;;;;;;;;;;5070706;28;843;-65
2021/03/25 14:47:27;;;;;;;;;;;;;;;;;;5070851;28;823;-64
2021/03/25 14:49:53;;;;;;;;;;;;;;;;;;5087272;28;1413;-65
2021/03/25 14:52:18;;;;;;;;;;;;;;;;;;5070903;28;1967;-64
2021/03/25 14:54:43;;;;;;;;;;;;;;;;;;5061060;28;1181;-64
2021/03/25 14:57:09;;;;;;;;;;;;;;;;;;5050861;28;1234;-64
2021/03/25 14:59:34;;;;;;;;;;;;;;;;;;5058090;28;933;-65
2021/03/25 15:02:00;;;;;;;;;;;;;;;;;;5070916;28;799;-66
2021/03/25 15:04:26;;;;;;;;;;;;;;;;;;5069299;28;1218;-65
2021/03/25 15:06:51;;;;;;;;;;;;;;;;;;5071171;28;803;-67
2021/03/25 15:09:17;;;;;;;;;;;;;;;;;;5070610;28;842;-65
2021/03/25 15:11:43;;;;;;;;;;;;;;;;;;5070792;28;1957;-67
2021/03/25 15:14:08;;;;;;;;;;;;;;;;;;5071258;28;922;-66
2021/03/25 15:16:34;;;;;;;;;;;;;;;;;;5070046;28;807;-66
2021/03/25 15:18:59;;;;;;;;;;;;;;;;;;5069004;28;962;-65
2021/03/25 15:21:25;;;;;;;;;;;;;;;;;;5070166;28;847;-66
2021/03/25 15:23:50;;;;;;;;;;;;;;;;;;5070399;28;1419;-65
2021/03/25 15:26:19;;;;;;;;;;;;;;;;;;5070432;28;818;-66
2021/03/25 15:28:44;;;;;;;;;;;;;;;;;;5070226;28;819;-66
2021/03/25 15:31:10;;;;;;;;;;;;;;;;;;5069739;28;1314;-65
2021/03/25 15:33:35;;;;;;;;;;;;;;;;;;5070117;28;1962;-66
2021/03/25 15:36:03;;;;;;;;;;;;;;;;;;5069922;28;900;-65
2021/03/25 15:38:30;;;;;;;;;;;;;;;;;;5069447;28;897;-66
2021/03/25 15:41:01;;;;;;;;;;;;;;;;;;5068475;28;1311;-66
2021/03/25 15:43:27;;;;;;;;;;;;;;;;;;5068277;28;965;-64
2021/03/25 15:45:53;;;;;;;;;;;;;;;;;;5069139;28;803;-65
2021/03/25 15:48:20;;;;;;;;;;;;;;;;;;5069842;28;823;-65
2021/03/25 15:50:45;;;;;;;;;;;;;;;;;;5069660;28;862;-65
2021/03/25 15:53:21;;;;;;;;;;;;;;;;;;5076800;28;1957;-64
2021/03/25 15:55:47;;;;;;;;;;;;;;;;;;5049652;28;950;-65
2021/03/25 15:58:14;;;;;;;;;;;;;;;;;;5051959;28;1222;-65
2021/03/25 16:00:39;;;;;;;;;;;;;;;;;;5068993;28;941;-65
2021/03/25 16:03:06;;;;;;;;;;;;;;;;;;5072935;28;1233;-68
2021/03/25 16:05:32;;;;;;;;;;;;;;;;;;5074790;28;1143;-64
2021/03/25 16:07:58;;;;;;;;;;;;;;;;;;5068990;28;803;-64
2021/03/25 16:10:23;;;;;;;;;;;;;;;;;;5069106;28;814;-69
2021/03/25 16:12:49;;;;;;;;;;;;;;;;;;5067956;28;1902;-67
2021/03/25 16:15:21;;;;;;;;;;;;;;;;;;5062234;28;1677;-68
2021/03/25 16:17:46;;;;;;;;;;;;;;;;;;5051297;28;1767;-68
2021/03/25 16:20:12;;;;;;;;;;;;;;;;;;5070080;28;1167;-67
2021/03/25 16:22:37;;;;;;;;;;;;;;;;;;5069307;28;1464;-68
2021/03/25 16:25:03;;;;;;;;;;;;;;;;;;5068172;28;1400;-68
2021/03/25 16:27:28;;;;;;;;;;;;;;;;;;5068548;28;835;-68
2021/03/25 16:29:54;;;;;;;;;;;;;;;;;;5068813;28;898;-69
2021/03/25 16:32:19;;;;;;;;;;;;;;;;;;5068120;28;1964;-68
2021/03/25 16:34:44;;;;;;;;;;;;;;;;;;5068617;28;855;-70
2021/03/25 16:37:10;;;;;;;;;;;;;;;;;;5068210;28;867;-69
2021/03/25 16:39:35;;;;;;;;;;;;;;;;;;5068540;28;831;-70
2021/03/25 16:42:01;;;;;;;;;;;;;;;;;;5066911;28;1234;-70
2021/03/25 16:44:28;;;;;;;;;;;;;;;;;;5068418;28;851;-67
2021/03/25 16:46:53;;;;;;;;;;;;;;;;;;5068728;28;863;-68
2021/03/25 16:49:19;;;;;;;;;;;;;;;;;;5051688;28;1608;-69
2021/03/25 16:51:44;;;;;;;;;;;;;;;;;;5048338;28;1894;-69
2021/03/25 16:54:09;;;;;;;;;;;;;;;;;;5060343;28;1225;-69
2021/03/25 16:56:35;;;;;;;;;;;;;;;;;;5064928;28;1600;-69
2021/03/25 16:59:01;;;;;;;;;;;;;;;;;;5059839;28;831;-68
2021/03/25 17:01:27;;;;;;;;;;;;;;;;;;5056224;28;879;-68
2021/03/25 17:03:52;;;;;;;;;;;;;;;;;;5048069;28;998;-66
2021/03/25 17:06:18;;;;;;;;;;;;;;;;;;5047759;28;788;-67
2021/03/25 17:08:44;;;;;;;;;;;;;;;;;;5047988;28;871;-69
2021/03/25 17:11:12;;;;;;;;;;;;;;;;;;5047924;28;1207;-68
2021/03/25 17:13:38;;;;;;;;;;;;;;;;;;5048457;28;1952;-66
2021/03/25 17:16:04;;;;;;;;;;;;;;;;;;5048004;28;807;-68
2021/03/25 17:18:30;;;;;;;;;;;;;;;;;;5065103;28;1421;-67
2021/03/25 17:20:57;;;;;;;;;;;;;;;;;;5077400;28;1288;-67
2021/03/25 17:23:27;;;;;;;;;;;;;;;;;;5071296;28;1623;-65
2021/03/25 17:25:53;;;;;;;;;;;;;;;;;;5070627;28;1179;-66
2021/03/25 17:28:20;;;;;;;;;;;;;;;;;;5076796;28;1226;-64
2021/03/25 17:30:46;;;;;;;;;;;;;;;;;;5073678;28;1391;-66